Time;durP1;ratioP1;P1;durP2;ratioP2;P2;SDS_P1;SDS_P2;PMS_P1;PMS_P2;Temp;Humidity;BMP_temperature;BMP_pressure;BME280_temperature;BME280_humidity;BME280_pressure;Samples;Min_cycle;Max_cycle;Signal;HPM_P1;HPM_P2
2022/06/21 00:00:24;;;;;;;1.15;0.80;;;20.30;99.90;;;;;;7395897;19;20145;-75
2022/06/21 00:03:04;;;;;;;1.95;1.00;;;20.20;99.90;;;;;;7397292;19;20131;-76
2022/06/21 00:05:37;;;;;;;3.30;0.90;;;20.20;99.90;;;;;;7392204;19;20182;-75
2022/06/21 00:08:13;;;;;;;1.13;0.90;;;20.20;99.90;;;;;;7396266;19;20167;-76
2022/06/21 00:10:39;;;;;;;1.67;0.93;;;20.20;99.90;;;;;;7397167;19;20154;-76
2022/06/21 00:13:15;;;;;;;0.85;0.85;;;20.20;99.90;;;;;;7398848;19;20142;-75
2022/06/21 00:15:42;;;;;;;2.05;0.77;;;20.20;99.90;;;;;;7397442;19;20134;-75
2022/06/21 00:18:14;;;;;;;0.75;0.70;;;20.20;99.90;;;;;;7396882;19;20154;-75
2022/06/21 00:20:40;;;;;;;0.68;0.68;;;20.20;99.90;;;;;;7392172;19;20171;-75
2022/06/21 00:23:10;;;;;;;0.85;0.80;;;20.10;99.90;;;;;;7397596;19;20147;-75
2022/06/21 00:25:35;;;;;;;0.80;0.80;;;20.10;99.90;;;;;;7396046;19;20605;-75
2022/06/21 00:28:01;;;;;;;1.23;0.90;;;20.20;99.90;;;;;;7396678;19;20142;-75
2022/06/21 00:30:27;;;;;;;1.65;0.80;;;20.20;99.90;;;;;;7396421;19;20157;-75
2022/06/21 00:32:54;;;;;;;1.65;0.88;;;20.30;99.90;;;;;;7394063;19;20271;-75
2022/06/21 00:35:22;;;;;;;2.70;0.73;;;20.10;99.90;;;;;;7398793;19;20123;-75
2022/06/21 00:37:49;;;;;;;0.70;0.70;;;19.90;99.90;;;;;;7394669;19;20218;-74
2022/06/21 00:40:27;;;;;;;3.03;0.80;;;19.90;99.90;;;;;;7393726;19;20797;-75
2022/06/21 00:43:12;;;;;;;0.75;0.73;;;19.90;99.90;;;;;;7398048;19;20126;-76
2022/06/21 00:45:42;;;;;;;1.05;0.90;;;19.60;99.90;;;;;;7398682;19;20134;-76
2022/06/21 00:48:16;;;;;;;0.70;0.60;;;19.80;99.90;;;;;;7390989;19;20150;-75
2022/06/21 00:50:50;;;;;;;1.23;0.82;;;19.80;99.90;;;;;;7395137;19;20564;-75
2022/06/21 00:53:33;;;;;;;2.15;0.80;;;19.90;99.90;;;;;;7393617;19;20217;-76
2022/06/21 00:56:10;;;;;;;4.55;0.73;;;20.00;99.90;;;;;;7394335;19;20146;-74
2022/06/21 00:58:36;;;;;;;1.55;1.15;;;19.80;99.90;;;;;;7395119;19;20150;-76
2022/06/21 01:03:41;;;;;;;4.88;1.00;;;19.90;99.90;;;;;;7316951;19;20193;-75
2022/06/21 01:06:33;;;;;;;0.63;0.60;;;19.90;99.90;;;;;;7389432;19;20152;-76
2022/06/21 01:09:21;;;;;;;1.52;0.85;;;19.80;99.90;;;;;;7394235;19;20147;-73
2022/06/21 01:12:05;;;;;;;2.72;0.80;;;19.90;99.90;;;;;;7395844;19;20170;-76
2022/06/21 01:14:35;;;;;;;2.05;0.70;;;19.80;99.90;;;;;;7394353;19;20139;-75
2022/06/21 01:17:01;;;;;;;1.58;0.73;;;19.60;99.90;;;;;;7395982;19;20139;-75
2022/06/21 01:19:44;;;;;;;2.38;0.88;;;19.70;99.90;;;;;;7394096;19;20145;-75
2022/06/21 01:22:36;;;;;;;0.85;0.70;;;19.70;99.90;;;;;;7396361;19;20165;-75
2022/06/21 01:25:02;;;;;;;2.45;0.80;;;19.60;99.90;;;;;;7394064;19;20143;-75
2022/06/21 01:27:28;;;;;;;1.13;0.77;;;19.50;99.90;;;;;;7393090;19;20149;-75
2022/06/21 01:29:56;;;;;;;1.20;1.05;;;19.60;99.90;;;;;;7394034;19;20575;-75
2022/06/21 01:32:23;;;;;;;2.63;1.08;;;19.60;99.90;;;;;;7393134;19;20217;-75
2022/06/21 01:34:48;;;;;;;1.13;0.80;;;19.60;99.90;;;;;;7394447;19;20214;-75
2022/06/21 01:37:19;;;;;;;1.27;0.90;;;19.70;99.90;;;;;;7392050;19;20135;-75
2022/06/21 01:40:02;;;;;;;1.58;0.90;;;19.70;99.90;;;;;;7396120;19;20215;-75
2022/06/21 01:42:41;;;;;;;2.63;0.80;;;19.60;99.90;;;;;;7398619;19;20787;-75
2022/06/21 01:45:15;;;;;;;0.90;0.85;;;19.40;99.90;;;;;;7390711;19;20628;-75
2022/06/21 01:47:54;;;;;;;1.30;0.93;;;19.20;99.90;;;;;;7390493;19;20146;-74
2022/06/21 01:50:22;;;;;;;0.93;0.70;;;19.10;99.90;;;;;;7392568;19;20613;-74
2022/06/21 01:52:52;;;;;;;1.73;0.90;;;19.10;99.90;;;;;;7394019;19;20135;-75
2022/06/21 01:55:42;;;;;;;1.40;0.85;;;19.00;99.90;;;;;;7392860;19;20130;-75
2022/06/21 01:58:14;;;;;;;1.23;0.73;;;18.90;99.90;;;;;;7393509;19;20135;-76
2022/06/21 02:00:47;;;;;;;0.63;0.63;;;18.90;99.90;;;;;;7392447;19;20206;-74
2022/06/21 02:03:18;;;;;;;0.70;0.70;;;18.90;99.90;;;;;;7394528;19;20241;-76
2022/06/21 02:05:50;;;;;;;2.50;0.90;;;18.90;99.90;;;;;;7394294;19;20138;-76
2022/06/21 02:08:20;;;;;;;1.40;0.80;;;18.90;99.90;;;;;;7392882;19;20139;-75
2022/06/21 02:10:51;;;;;;;1.13;0.70;;;19.00;99.90;;;;;;7390111;19;20130;-74
2022/06/21 02:13:23;;;;;;;1.17;0.82;;;19.10;99.90;;;;;;7396200;19;20138;-73
2022/06/21 02:16:00;;;;;;;1.85;1.00;;;19.10;99.90;;;;;;7390150;19;20224;-76
2022/06/21 02:18:32;;;;;;;0.98;0.85;;;19.00;99.90;;;;;;7390341;19;20138;-74
2022/06/21 02:21:10;;;;;;;2.05;0.80;;;19.00;99.90;;;;;;7389405;19;20561;-74
2022/06/21 02:23:36;;;;;;;1.50;0.80;;;19.00;99.90;;;;;;7391640;19;20158;-75
2022/06/21 02:26:02;;;;;;;0.70;0.70;;;18.90;99.90;;;;;;7391913;19;20159;-76
2022/06/21 02:28:28;;;;;;;1.80;0.80;;;19.00;99.90;;;;;;7392047;19;20637;-75
2022/06/21 02:30:55;;;;;;;2.65;0.90;;;19.00;99.90;;;;;;7389436;19;20143;-74
2022/06/21 02:33:25;;;;;;;1.63;0.70;;;18.90;99.90;;;;;;7395392;19;20145;-74
2022/06/21 02:35:55;;;;;;;2.25;0.60;;;18.80;99.90;;;;;;7391523;19;20534;-74
2022/06/21 02:38:32;;;;;;;1.42;0.85;;;18.70;99.90;;;;;;7392531;19;20139;-75
2022/06/21 02:41:11;;;;;;;1.38;0.90;;;19.10;99.90;;;;;;7389912;19;20511;-75
2022/06/21 02:43:52;;;;;;;1.20;0.82;;;19.10;99.90;;;;;;7391455;19;20233;-75
2022/06/21 02:46:28;;;;;;;2.00;0.95;;;19.10;99.90;;;;;;7392290;19;21130;-75
2022/06/21 02:49:16;;;;;;;1.35;0.90;;;19.10;99.90;;;;;;7388910;19;20146;-75
2022/06/21 02:52:02;;;;;;;1.42;0.90;;;19.10;99.90;;;;;;7389406;19;20135;-76
2022/06/21 02:54:44;;;;;;;1.23;0.88;;;19.00;99.90;;;;;;7391955;19;20141;-74
2022/06/21 02:57:42;;;;;;;2.40;0.82;;;19.00;99.90;;;;;;7389287;19;20154;-74
2022/06/21 03:00:14;;;;;;;1.45;1.10;;;18.80;99.90;;;;;;7388318;19;20170;-74
2022/06/21 03:02:40;;;;;;;2.75;0.90;;;18.70;99.90;;;;;;7389732;19;20185;-73
2022/06/21 03:05:22;;;;;;;0.70;0.70;;;18.70;99.90;;;;;;7387447;19;20515;-74
2022/06/21 03:07:53;;;;;;;1.80;0.93;;;18.70;99.90;;;;;;7391498;19;20126;-75
2022/06/21 03:10:26;;;;;;;1.05;0.95;;;18.70;99.90;;;;;;7388263;19;20392;-74
2022/06/21 03:13:03;;;;;;;1.25;0.93;;;18.80;99.90;;;;;;7392583;19;20163;-75
2022/06/21 03:15:29;;;;;;;1.75;1.15;;;18.90;99.90;;;;;;7388702;19;20131;-75
2022/06/21 03:18:01;;;;;;;1.45;0.68;;;18.90;99.90;;;;;;7391341;19;20146;-75
2022/06/21 03:20:29;;;;;;;1.98;0.77;;;18.90;99.90;;;;;;7389926;19;20142;-74
2022/06/21 03:22:56;;;;;;;1.00;0.80;;;18.90;99.90;;;;;;7389548;19;20131;-74
2022/06/21 03:25:32;;;;;;;0.77;0.70;;;18.90;99.90;;;;;;7389927;19;20576;-74
2022/06/21 03:28:00;;;;;;;4.72;0.90;;;18.80;99.90;;;;;;7393434;19;20237;-75
2022/06/21 03:30:35;;;;;;;1.95;0.85;;;18.30;99.90;;;;;;7387866;19;20242;-74
2022/06/21 03:33:03;;;;;;;0.90;0.70;;;18.60;99.90;;;;;;7388686;19;20158;-75
2022/06/21 03:35:33;;;;;;;3.30;0.90;;;18.70;99.90;;;;;;7389005;19;20622;-74
2022/06/21 03:37:59;;;;;;;2.35;1.00;;;18.90;99.90;;;;;;7389098;19;20153;-75
2022/06/21 03:43:19;;;;;;;1.13;0.80;;;19.10;99.90;;;;;;7389646;19;20150;-74
2022/06/21 03:45:48;;;;;;;1.55;0.93;;;18.90;99.90;;;;;;7389545;19;20167;-75
2022/06/21 03:48:38;;;;;;;1.58;0.90;;;18.80;99.90;;;;;;7390539;19;20146;-75
2022/06/21 03:51:20;;;;;;;2.53;0.93;;;18.80;99.90;;;;;;7390850;19;20151;-74
2022/06/21 03:53:56;;;;;;;1.40;0.80;;;18.70;99.90;;;;;;7389525;19;20146;-74
2022/06/21 03:56:48;;;;;;;1.20;0.75;;;18.60;99.90;;;;;;7389491;19;20506;-74
2022/06/21 03:59:21;;;;;;;0.73;0.73;;;18.80;99.90;;;;;;7389535;19;20181;-75
2022/06/21 04:02:16;;;;;;;3.83;0.70;;;18.80;99.90;;;;;;7388921;19;20134;-73
2022/06/21 04:04:56;;;;;;;1.25;1.00;;;18.90;99.90;;;;;;7386264;19;20178;-75
2022/06/21 04:07:30;;;;;;;2.15;1.10;;;18.90;99.90;;;;;;7390657;19;20135;-75
2022/06/21 04:10:07;;;;;;;5.35;1.05;;;18.80;99.90;;;;;;7394754;19;20178;-75
2022/06/21 04:12:44;;;;;;;2.90;0.95;;;18.70;99.90;;;;;;7399629;19;20142;-75
2022/06/21 04:15:41;;;;;;;0.80;0.80;;;18.70;99.90;;;;;;7394900;19;20154;-75
2022/06/21 04:18:21;;;;;;;1.75;1.15;;;18.60;99.90;;;;;;7396060;19;20134;-74
2022/06/21 04:21:03;;;;;;;2.13;1.25;;;18.60;99.90;;;;;;7394176;19;20503;-75
2022/06/21 04:23:38;;;;;;;2.50;0.90;;;18.50;99.90;;;;;;7395487;19;20154;-75
2022/06/21 04:26:20;;;;;;;2.25;0.90;;;18.60;99.90;;;;;;7394093;19;20142;-75
2022/06/21 04:28:58;;;;;;;1.45;1.10;;;18.60;99.90;;;;;;7399948;19;20138;-75
2022/06/21 04:31:34;;;;;;;1.27;0.90;;;18.70;99.90;;;;;;7396483;19;20131;-74
2022/06/21 04:34:09;;;;;;;1.58;1.20;;;18.80;99.90;;;;;;7397105;19;20149;-75
2022/06/21 04:36:54;;;;;;;2.42;1.20;;;19.00;99.90;;;;;;7393975;19;20249;-76
2022/06/21 04:39:36;;;;;;;2.45;1.20;;;19.10;99.90;;;;;;7392812;19;20700;-74
2022/06/21 04:42:37;;;;;;;2.10;1.20;;;19.10;99.90;;;;;;7392268;19;20131;-74
2022/06/21 04:45:13;;;;;;;2.58;1.10;;;19.10;99.90;;;;;;7395208;19;20155;-75
2022/06/21 04:47:44;;;;;;;2.80;1.27;;;19.10;99.90;;;;;;7394691;19;20260;-76
2022/06/21 04:50:28;;;;;;;4.30;1.38;;;19.00;99.90;;;;;;7395771;19;20138;-75
2022/06/21 04:53:06;;;;;;;1.35;1.00;;;19.00;99.90;;;;;;7394953;19;20154;-74
2022/06/21 04:55:45;;;;;;;3.28;1.15;;;19.10;99.90;;;;;;7395629;19;20793;-75
2022/06/21 04:58:11;;;;;;;5.40;1.33;;;19.10;99.90;;;;;;7391220;19;20149;-75
2022/06/21 05:00:37;;;;;;;2.25;1.20;;;19.20;99.90;;;;;;7391635;19;20139;-75
2022/06/21 05:03:26;;;;;;;3.08;1.25;;;19.20;99.90;;;;;;7393345;19;20178;-75
2022/06/21 05:05:52;;;;;;;2.35;1.02;;;19.20;99.90;;;;;;7393311;19;20613;-75
2022/06/21 05:08:22;;;;;;;2.70;1.27;;;19.10;99.90;;;;;;7393403;19;20157;-75
2022/06/21 05:10:54;;;;;;;1.73;1.13;;;19.20;99.90;;;;;;7397699;19;20180;-75
2022/06/21 05:13:41;;;;;;;2.25;1.15;;;19.40;99.90;;;;;;7396142;19;20188;-75
2022/06/21 05:16:38;;;;;;;2.10;1.20;;;19.50;99.90;;;;;;7392651;19;20152;-76
2022/06/21 05:19:32;;;;;;;2.17;1.10;;;19.60;99.90;;;;;;7392138;19;20174;-76
2022/06/21 05:22:24;;;;;;;2.97;1.20;;;19.80;99.90;;;;;;7392215;19;20155;-76
2022/06/21 05:24:50;;;;;;;1.30;0.90;;;19.60;99.90;;;;;;7393224;19;20142;-76
2022/06/21 05:27:44;;;;;;;4.25;1.33;;;19.60;99.90;;;;;;7391597;19;20146;-76
2022/06/21 05:30:34;;;;;;;3.78;2.80;;;19.60;99.90;;;;;;7390120;19;20492;-75
2022/06/21 05:33:05;;;;;;;2.10;1.13;;;19.60;99.90;;;;;;7393912;19;20139;-75
2022/06/21 05:35:36;;;;;;;3.17;1.10;;;19.90;99.90;;;;;;7390102;19;20154;-77
2022/06/21 05:38:24;;;;;;;2.25;1.20;;;19.90;99.90;;;;;;7394749;19;20139;-76
2022/06/21 05:40:57;;;;;;;1.30;1.00;;;19.80;99.90;;;;;;7391074;19;20149;-77
2022/06/21 05:43:45;;;;;;;2.60;1.38;;;19.80;99.90;;;;;;7393753;19;20149;-75
2022/06/21 05:46:16;;;;;;;4.15;1.20;;;20.00;99.90;;;;;;7389954;19;20202;-76
2022/06/21 05:48:43;;;;;;;3.78;1.50;;;20.20;99.90;;;;;;7392725;19;20185;-76
2022/06/21 05:51:19;;;;;;;3.25;1.60;;;20.00;99.90;;;;;;7391479;19;20150;-75
2022/06/21 05:53:53;;;;;;;3.22;1.52;;;20.20;99.90;;;;;;7390106;19;20142;-76
2022/06/21 05:56:21;;;;;;;4.82;2.05;;;20.20;99.90;;;;;;7386397;19;20167;-75
2022/06/21 05:59:07;;;;;;;2.67;1.60;;;20.50;99.90;;;;;;7386916;19;20142;-75
2022/06/21 06:01:38;;;;;;;1.77;1.27;;;20.50;99.70;;;;;;7393323;19;20634;-72
2022/06/21 06:04:36;;;;;;;2.90;1.67;;;20.50;99.70;;;;;;7389032;19;20202;-78
2022/06/21 06:07:03;;;;;;;3.00;1.30;;;20.40;99.90;;;;;;7393086;19;20139;-75
2022/06/21 06:09:37;;;;;;;2.55;1.00;;;20.40;99.90;;;;;;7392095;19;20234;-78
2022/06/21 06:12:12;;;;;;;2.95;1.70;;;20.40;99.90;;;;;;7394582;19;20159;-79
2022/06/21 06:14:51;;;;;;;2.53;1.38;;;20.50;99.50;;;;;;7391731;19;20150;-74
2022/06/21 06:17:24;;;;;;;5.97;1.60;;;20.70;99.80;;;;;;7393037;19;20146;-76
2022/06/21 06:19:58;;;;;;;2.05;1.30;;;20.80;99.40;;;;;;7391443;19;20154;-75
2022/06/21 06:23:04;;;;;;;3.90;1.20;;;21.00;98.70;;;;;;7390219;19;20151;-76
2022/06/21 06:25:39;;;;;;;2.63;1.02;;;21.20;98.80;;;;;;7387718;19;20146;-78
2022/06/21 06:28:35;;;;;;;5.13;1.33;;;21.40;98.20;;;;;;7391091;19;20505;-82
2022/06/21 06:31:15;;;;;;;2.55;1.05;;;21.60;97.90;;;;;;7388242;19;20158;-75
2022/06/21 06:33:44;;;;;;;1.42;0.98;;;22.40;96.50;;;;;;7386577;19;20627;-74
2022/06/21 06:36:16;;;;;;;2.78;1.00;;;23.10;95.70;;;;;;7388363;19;20154;-79
2022/06/21 06:38:42;;;;;;;1.92;1.13;;;23.40;94.90;;;;;;7390262;19;20270;-76
2022/06/21 06:41:23;;;;;;;3.13;1.25;;;23.70;94.00;;;;;;7389383;19;20230;-75
2022/06/21 06:44:21;;;;;;;5.63;1.88;;;23.50;93.40;;;;;;7389273;19;20149;-75
2022/06/21 06:46:51;;;;;;;1.42;1.00;;;23.30;94.10;;;;;;7387802;19;20150;-81
2022/06/21 06:49:26;;;;;;;2.20;1.25;;;23.60;93.50;;;;;;7392690;19;20138;-74
2022/06/21 06:52:16;;;;;;;2.40;1.42;;;23.30;93.90;;;;;;7389573;19;20137;-75
2022/06/21 06:54:58;;;;;;;3.38;1.05;;;23.60;93.30;;;;;;7388842;19;20179;-81
2022/06/21 06:57:51;;;;;;;2.97;1.60;;;24.20;92.30;;;;;;7390581;19;20155;-75
2022/06/21 07:00:31;;;;;;;3.10;1.25;;;24.60;92.10;;;;;;7388363;19;20196;-76
2022/06/21 07:03:12;;;;;;;2.33;1.02;;;24.60;91.70;;;;;;7389053;19;20189;-75
2022/06/21 07:05:38;;;;;;;4.25;1.30;;;25.10;91.10;;;;;;7389302;19;20477;-75
2022/06/21 07:08:44;;;;;;;5.00;1.48;;;25.30;90.70;;;;;;7390660;19;20130;-78
2022/06/21 07:11:21;;;;;;;1.88;1.00;;;25.60;90.70;;;;;;7385563;19;20160;-81
2022/06/21 07:13:47;;;;;;;2.05;1.38;;;25.80;88.90;;;;;;7389528;19;20218;-81
2022/06/21 07:16:20;;;;;;;3.35;1.38;;;25.80;90.00;;;;;;7388606;19;20230;-75
2022/06/21 07:18:50;;;;;;;2.72;1.27;;;25.40;90.00;;;;;;7390724;19;20154;-75
2022/06/21 07:21:18;;;;;;;5.47;1.52;;;25.80;89.20;;;;;;7386976;19;20135;-82
2022/06/21 07:23:45;;;;;;;3.35;1.30;;;25.90;88.30;;;;;;7388666;19;20141;-82
2022/06/21 07:26:26;;;;;;;3.35;1.30;;;25.50;87.50;;;;;;7388896;19;20131;-82
2022/06/21 07:29:01;;;;;;;2.28;1.20;;;25.50;88.40;;;;;;7393523;19;20135;-82
2022/06/21 07:31:45;;;;;;;4.18;1.65;;;25.00;89.70;;;;;;7388862;19;20484;-74
2022/06/21 07:34:17;;;;;;;3.45;1.20;;;24.70;90.30;;;;;;7388908;19;20143;-80
2022/06/21 07:36:51;;;;;;;2.38;1.30;;;24.60;90.20;;;;;;7390944;19;20542;-76
2022/06/21 07:39:41;;;;;;;2.70;1.40;;;23.90;90.70;;;;;;7388956;19;20167;-76
2022/06/21 07:42:15;;;;;;;5.85;1.75;;;23.60;91.20;;;;;;7388656;19;20140;-80
2022/06/21 07:44:55;;;;;;;5.43;1.35;;;23.40;91.40;;;;;;7392371;19;20598;-82
2022/06/21 07:47:44;;;;;;;4.72;1.10;;;23.10;92.10;;;;;;7397246;19;20146;-80
2022/06/21 07:50:23;;;;;;;1.80;0.85;;;23.00;92.20;;;;;;7394620;19;20146;-84
2022/06/21 07:53:02;;;;;;;4.13;3.00;;;22.70;92.30;;;;;;7395715;19;20146;-75
2022/06/21 07:55:34;;;;;;;9.10;5.68;;;22.60;93.20;;;;;;7405155;19;20156;-84
2022/06/21 07:58:10;;;;;;;2.20;1.25;;;22.60;92.80;;;;;;7394699;19;20143;-82
2022/06/21 08:09:25;;;;;;;2.58;1.35;;;24.00;91.30;;;;;;7396668;19;20135;-76
2022/06/21 08:12:00;;;;;;;2.25;1.27;;;24.00;91.20;;;;;;7394100;19;20146;-82
2022/06/21 08:14:29;;;;;;;2.15;1.55;;;23.60;91.90;;;;;;7398282;19;20201;-82
2022/06/21 08:17:20;;;;;;;2.33;1.30;;;23.30;91.90;;;;;;7397033;19;20138;-75
2022/06/21 08:19:54;;;;;;;3.58;1.33;;;23.10;92.30;;;;;;7402956;19;20150;-80
2022/06/21 08:22:42;;;;;;;2.78;1.10;;;23.00;92.90;;;;;;7392102;19;20201;-81
2022/06/21 08:25:26;;;;;;;1.25;1.05;;;23.00;92.80;;;;;;7395678;19;20122;-81
2022/06/21 08:28:00;;;;;;;3.33;1.15;;;22.90;93.10;;;;;;7393085;19;20152;-76
2022/06/21 08:30:38;;;;;;;4.45;1.50;;;22.90;93.10;;;;;;7395795;19;20157;-82
2022/06/21 08:33:09;;;;;;;3.80;1.40;;;22.70;93.30;;;;;;7394823;19;20585;-84
2022/06/21 08:35:45;;;;;;;2.78;1.27;;;22.60;93.80;;;;;;7393203;19;20629;-84
2022/06/21 08:38:13;;;;;;;1.55;1.13;;;22.50;94.10;;;;;;7394059;19;20141;-82
2022/06/21 08:40:50;;;;;;;2.03;1.00;;;22.60;94.00;;;;;;7393594;19;20155;-75
2022/06/21 08:44:05;;;;;;;1.50;0.98;;;22.50;94.30;;;;;;7396070;19;20149;-75
2022/06/21 08:46:54;;;;;;;3.83;2.95;;;22.40;94.40;;;;;;7405721;19;20201;-82
2022/06/21 08:49:44;;;;;;;4.47;1.23;;;22.30;94.40;;;;;;7394140;19;20135;-76
2022/06/21 08:52:10;;;;;;;2.67;1.35;;;22.30;95.20;;;;;;7398271;19;20139;-76
2022/06/21 08:55:13;;;;;;;2.63;1.48;;;22.40;95.10;;;;;;7392887;19;20601;-83
2022/06/21 08:58:08;;;;;;;1.10;1.00;;;22.40;95.10;;;;;;7392402;19;20150;-75
2022/06/21 09:00:55;;;;;;;1.73;1.13;;;22.30;95.20;;;;;;7394857;19;20154;-77
2022/06/21 09:03:48;;;;;;;2.45;1.48;;;22.40;95.00;;;;;;7403583;19;20554;-75
2022/06/21 09:06:55;;;;;;;3.42;2.10;;;22.50;95.50;;;;;;7393031;19;20153;-81
2022/06/21 09:09:39;;;;;;;3.70;1.02;;;22.50;96.30;;;;;;7389718;19;20150;-82
2022/06/21 09:12:36;;;;;;;3.35;1.67;;;22.50;96.00;;;;;;7396586;19;20155;-75
2022/06/21 09:15:07;;;;;;;2.50;1.23;;;22.80;95.90;;;;;;7403518;19;20135;-76
2022/06/21 09:17:56;;;;;;;2.80;1.70;;;23.20;95.40;;;;;;7392873;19;20135;-76
2022/06/21 09:20:45;;;;;;;3.33;2.58;;;23.60;94.60;;;;;;7388937;19;20222;-74
2022/06/21 09:23:33;;;;;;;2.50;1.35;;;23.60;94.20;;;;;;7391438;19;20495;-80
2022/06/21 09:26:09;;;;;;;1.58;1.40;;;23.50;94.20;;;;;;7405318;19;20159;-78
2022/06/21 09:28:49;;;;;;;2.72;1.58;;;23.30;94.20;;;;;;7394027;19;20149;-79
2022/06/21 09:31:40;;;;;;;1.55;1.08;;;23.40;94.60;;;;;;7392192;19;20229;-79
2022/06/21 09:34:25;;;;;;;2.15;1.50;;;23.50;94.50;;;;;;7393241;19;20145;-75
2022/06/21 09:37:06;;;;;;;3.47;1.20;;;23.70;94.40;;;;;;7406070;19;20142;-75
2022/06/21 09:39:36;;;;;;;1.52;1.42;;;24.00;94.00;;;;;;7391933;19;20145;-74
2022/06/21 09:42:22;;;;;;;2.15;1.20;;;24.10;93.60;;;;;;7389355;19;20158;-75
2022/06/21 09:44:56;;;;;;;1.65;0.90;;;24.30;93.30;;;;;;7391606;19;20142;-76
2022/06/21 09:47:40;;;;;;;3.22;1.35;;;24.10;93.50;;;;;;7391186;19;20266;-76
2022/06/21 09:50:31;;;;;;;1.77;1.05;;;24.10;93.30;;;;;;7393244;19;20214;-85
2022/06/21 09:53:03;;;;;;;1.88;1.27;;;23.90;94.10;;;;;;7390193;19;20150;-79
2022/06/21 09:55:56;;;;;;;1.67;1.17;;;24.00;93.80;;;;;;7392162;19;20135;-80
2022/06/21 09:58:46;;;;;;;2.88;2.03;;;24.10;93.70;;;;;;7393651;19;20604;-82
2022/06/21 10:01:22;;;;;;;3.65;1.50;;;24.10;93.80;;;;;;7391746;19;20146;-81
2022/06/21 10:03:55;;;;;;;14.25;10.00;;;24.20;93.80;;;;;;7388389;19;20191;-74
2022/06/21 10:06:51;;;;;;;2.20;1.42;;;24.50;93.90;;;;;;7392664;19;20848;-77
2022/06/21 10:09:49;;;;;;;3.00;1.60;;;24.70;93.50;;;;;;7389332;19;20773;-82
2022/06/21 10:12:47;;;;;;;3.78;1.48;;;24.90;93.30;;;;;;7391058;19;20168;-80
2022/06/21 10:15:47;;;;;;;3.63;1.50;;;25.00;93.00;;;;;;7393140;19;20174;-83
2022/06/21 10:18:31;;;;;;;3.30;1.70;;;25.00;92.80;;;;;;7391075;19;20163;-76
2022/06/21 10:21:36;;;;;;;4.22;1.30;;;24.80;93.00;;;;;;7389029;19;20150;-75
2022/06/21 10:24:33;;;;;;;1.70;1.40;;;24.90;93.30;;;;;;7390963;19;20158;-79
2022/06/21 10:27:24;;;;;;;2.75;1.70;;;24.90;93.80;;;;;;7390394;19;20150;-76
2022/06/21 10:30:20;;;;;;;1.88;1.27;;;25.00;93.50;;;;;;7389066;19;20162;-80
2022/06/21 10:32:58;;;;;;;2.78;1.25;;;25.00;93.10;;;;;;7401954;19;20143;-76
2022/06/21 10:35:34;;;;;;;6.80;3.38;;;24.90;93.20;;;;;;7400465;19;20145;-80
2022/06/21 10:38:08;;;;;;;2.33;1.70;;;24.90;93.80;;;;;;7392709;19;20138;-76
2022/06/21 10:40:40;;;;;;;3.15;1.50;;;25.00;93.50;;;;;;7402529;19;20165;-81
2022/06/21 10:43:30;;;;;;;2.88;1.83;;;25.20;93.40;;;;;;7395392;19;20157;-82
2022/06/21 10:46:19;;;;;;;1.65;1.48;;;25.30;93.70;;;;;;7389359;19;20146;-75
2022/06/21 10:49:14;;;;;;;4.25;1.90;;;25.50;93.60;;;;;;7392415;19;20657;-74
2022/06/21 10:51:43;;;;;;;4.55;2.28;;;25.30;93.90;;;;;;7390344;19;20225;-75
2022/06/21 10:54:42;;;;;;;2.95;2.00;;;25.30;94.30;;;;;;7393110;19;20246;-82
2022/06/21 10:57:42;;;;;;;2.55;2.05;;;25.30;94.20;;;;;;7391110;19;20138;-76
2022/06/21 11:03:28;;;;;;;2.10;1.85;;;25.50;94.00;;;;;;7390338;19;20673;-81
2022/06/21 11:06:05;;;;;;;2.95;1.40;;;25.50;94.40;;;;;;7390949;19;20505;-77
2022/06/21 11:08:58;;;;;;;3.22;2.55;;;25.40;94.90;;;;;;7389891;19;20223;-81
2022/06/21 11:11:41;;;;;;;2.55;1.70;;;25.50;95.10;;;;;;7393960;19;20495;-77
2022/06/21 11:14:32;;;;;;;2.88;1.90;;;25.70;94.70;;;;;;7393517;19;20727;-81
2022/06/21 11:17:17;;;;;;;2.47;1.83;;;25.80;95.30;;;;;;7390520;19;20142;-82
2022/06/21 11:19:51;;;;;;;2.78;1.65;;;26.00;94.60;;;;;;7392544;19;20201;-75
2022/06/21 11:22:29;;;;;;;3.75;2.65;;;25.90;94.80;;;;;;7396769;19;20138;-76
2022/06/21 11:25:14;;;;;;;3.50;2.20;;;25.90;95.40;;;;;;7407548;19;20146;-78
2022/06/21 11:28:03;;;;;;;2.90;2.03;;;25.90;95.20;;;;;;7399809;19;20577;-76
2022/06/21 11:30:51;;;;;;;3.63;2.20;;;25.90;94.90;;;;;;7399232;19;20142;-81
2022/06/21 11:33:17;;;;;;;5.10;1.90;;;25.80;95.50;;;;;;7395497;19;20471;-81
2022/06/21 11:35:55;;;;;;;2.97;2.10;;;25.90;95.20;;;;;;7399389;19;20133;-76
2022/06/21 11:38:21;;;;;;;2.30;1.65;;;25.90;95.70;;;;;;7395524;19;20157;-82
2022/06/21 11:41:12;;;;;;;4.18;2.10;;;25.70;96.10;;;;;;7400228;19;20134;-76
2022/06/21 11:43:58;;;;;;;2.28;1.60;;;25.80;95.90;;;;;;7396535;19;20123;-81
2022/06/21 11:46:36;;;;;;;2.25;1.70;;;25.70;96.40;;;;;;7394982;19;20127;-75
2022/06/21 11:49:07;;;;;;;2.65;1.73;;;25.70;96.20;;;;;;7397347;19;20149;-82
2022/06/21 11:51:39;;;;;;;5.35;2.00;;;25.80;96.50;;;;;;7394412;19;20145;-82
2022/06/21 11:54:13;;;;;;;2.30;1.75;;;26.00;96.20;;;;;;7394110;19;20135;-76
2022/06/21 11:56:39;;;;;;;2.72;1.95;;;26.20;96.60;;;;;;7396087;19;23546;-75
2022/06/21 11:59:39;;;;;;;2.72;2.35;;;26.40;96.00;;;;;;7398381;19;20155;-77
2022/06/21 12:02:23;;;;;;;3.40;2.20;;;26.50;96.40;;;;;;7395834;19;20186;-81
2022/06/21 12:04:55;;;;;;;2.88;2.13;;;26.60;95.50;;;;;;7398419;19;20150;-75
2022/06/21 12:07:36;;;;;;;3.10;2.15;;;26.50;95.70;;;;;;7396824;19;20139;-81
2022/06/21 12:10:20;;;;;;;4.60;1.90;;;26.40;95.80;;;;;;7394824;19;20130;-75
2022/06/21 12:12:55;;;;;;;3.10;2.20;;;26.40;95.90;;;;;;7398400;19;20134;-80
2022/06/21 12:15:39;;;;;;;2.60;1.85;;;26.30;96.20;;;;;;7394773;19;20150;-75
2022/06/21 12:18:32;;;;;;;5.32;2.15;;;26.20;96.80;;;;;;7394833;19;20535;-74
2022/06/21 12:21:17;;;;;;;4.40;1.98;;;26.30;96.60;;;;;;7393185;19;20146;-75
2022/06/21 12:23:49;;;;;;;2.95;1.70;;;26.40;96.40;;;;;;7395796;19;20206;-76
2022/06/21 12:26:19;;;;;;;5.18;2.60;;;26.40;96.60;;;;;;7394587;19;20534;-76
2022/06/21 12:28:45;;;;;;;5.38;2.22;;;26.40;96.80;;;;;;7394664;19;20130;-81
2022/06/21 12:31:30;;;;;;;3.05;2.03;;;26.40;96.90;;;;;;7394631;19;20163;-75
2022/06/21 12:34:03;;;;;;;4.60;2.28;;;26.50;96.80;;;;;;7392350;19;20150;-80
2022/06/21 12:36:43;;;;;;;3.28;2.25;;;26.50;97.00;;;;;;7394918;19;20147;-81
2022/06/21 12:39:24;;;;;;;3.65;2.30;;;26.50;96.90;;;;;;7395138;19;20134;-76
2022/06/21 12:42:16;;;;;;;3.40;2.35;;;26.50;96.90;;;;;;7392240;19;20164;-76
2022/06/21 12:45:02;;;;;;;6.60;2.28;;;26.40;97.10;;;;;;7394107;19;20153;-76
2022/06/21 12:47:47;;;;;;;3.22;2.20;;;26.30;97.40;;;;;;7393109;19;20576;-75
2022/06/21 12:50:34;;;;;;;5.72;2.30;;;26.30;97.30;;;;;;7393830;19;20126;-75
2022/06/21 12:53:30;;;;;;;4.88;2.72;;;26.10;97.50;;;;;;7400345;19;20138;-78
2022/06/21 12:56:12;;;;;;;2.20;1.92;;;26.10;97.70;;;;;;7395970;19;20131;-80
2022/06/21 12:58:37;;;;;;;6.13;2.25;;;26.00;97.90;;;;;;7394142;19;20138;-80
2022/06/21 13:01:19;;;;;;;4.20;2.50;;;26.10;98.00;;;;;;7394389;19;20146;-76
2022/06/21 13:04:00;;;;;;;5.07;2.30;;;26.20;98.00;;;;;;7391674;19;20182;-75
2022/06/21 13:06:28;;;;;;;2.80;2.40;;;26.30;98.20;;;;;;7392510;19;20135;-78
2022/06/21 13:09:12;;;;;;;2.72;2.10;;;26.50;97.80;;;;;;7391880;19;20158;-80
2022/06/21 13:11:59;;;;;;;3.65;2.13;;;26.60;98.10;;;;;;7393853;19;20426;-79
2022/06/21 13:14:45;;;;;;;3.78;2.17;;;26.50;98.20;;;;;;7390798;19;20214;-77
2022/06/21 13:17:23;;;;;;;5.30;2.13;;;26.60;98.40;;;;;;7398405;19;20626;-77
2022/06/21 13:20:06;;;;;;;2.70;1.98;;;26.80;97.80;;;;;;7390506;19;20815;-75
2022/06/21 13:22:52;;;;;;;4.30;2.20;;;26.80;97.80;;;;;;7392247;19;20154;-76
2022/06/21 13:25:24;;;;;;;3.65;2.55;;;26.80;97.70;;;;;;7392357;19;20505;-79
2022/06/21 13:28:09;;;;;;;3.40;2.38;;;26.80;97.90;;;;;;7394236;19;20590;-79
2022/06/21 13:30:58;;;;;;;2.85;2.22;;;26.80;97.90;;;;;;7394243;19;20131;-77
2022/06/21 13:33:49;;;;;;;7.68;3.00;;;26.70;98.10;;;;;;7396860;19;20201;-77
2022/06/21 13:36:40;;;;;;;5.25;2.40;;;26.80;97.90;;;;;;7391780;19;20205;-76
2022/06/21 13:39:14;;;;;;;4.40;2.50;;;26.80;97.70;;;;;;7396080;19;20139;-78
2022/06/21 13:45:08;;;;;;;7.05;2.65;;;26.80;97.90;;;;;;7393587;19;20175;-79
2022/06/21 13:47:56;;;;;;;4.75;2.55;;;26.80;97.80;;;;;;7395074;19;20143;-78
2022/06/21 13:50:41;;;;;;;5.22;2.88;;;26.80;97.80;;;;;;7391976;19;20142;-79
2022/06/21 13:53:17;;;;;;;3.30;2.25;;;26.80;97.90;;;;;;7393648;19;20596;-76
2022/06/21 13:56:05;;;;;;;3.33;2.50;;;26.90;98.00;;;;;;7393042;19;20199;-76
2022/06/21 13:58:40;;;;;;;3.33;2.13;;;26.90;97.70;;;;;;7394287;19;20247;-79
2022/06/21 14:01:15;;;;;;;3.22;2.05;;;26.90;98.20;;;;;;7391562;19;20594;-79
2022/06/21 14:04:02;;;;;;;6.20;2.70;;;27.00;98.00;;;;;;7385803;19;20348;-79
2022/06/21 14:06:57;;;;;;;3.35;2.10;;;27.10;97.60;;;;;;7392551;19;20166;-77
2022/06/21 14:09:54;;;;;;;5.32;2.70;;;27.00;98.00;;;;;;7391801;19;20165;-77